sensor_id;sensor_type;location;lat;lon;timestamp;temperature;humidity
1700;DHT22;847;48.058;7.810;2022-11-21T00:01:23;7.90;99.00
1700;DHT22;847;48.058;7.810;2022-11-21T00:03:50;7.90;99.00
1700;DHT22;847;48.058;7.810;2022-11-21T00:06:18;7.90;99.00
1700;DHT22;847;48.058;7.810;2022-11-21T00:08:45;7.90;99.00
1700;DHT22;847;48.058;7.810;2022-11-21T00:11:12;8.00;99.00
1700;DHT22;847;48.058;7.810;2022-11-21T00:13:39;8.00;99.00
1700;DHT22;847;48.058;7.810;2022-11-21T00:16:08;8.00;99.00
1700;DHT22;847;48.058;7.810;2022-11-21T00:18:37;8.00;99.00
1700;DHT22;847;48.058;7.810;2022-11-21T00:21:05;8.00;99.00
1700;DHT22;847;48.058;7.810;2022-11-21T00:23:32;8.00;99.00
1700;DHT22;847;48.058;7.810;2022-11-21T00:26:03;8.00;99.00
1700;DHT22;847;48.058;7.810;2022-11-21T00:28:29;8.00;99.00
1700;DHT22;847;48.058;7.810;2022-11-21T00:30:56;8.00;99.00
1700;DHT22;847;48.058;7.810;2022-11-21T00:33:23;8.10;99.00
1700;DHT22;847;48.058;7.810;2022-11-21T00:35:51;8.10;99.00
1700;DHT22;847;48.058;7.810;2022-11-21T00:38:18;8.10;99.00
1700;DHT22;847;48.058;7.810;2022-11-21T00:40:45;8.10;99.00
1700;DHT22;847;48.058;7.810;2022-11-21T00:43:11;8.10;99.00
1700;DHT22;847;48.058;7.810;2022-11-21T00:45:39;8.10;99.00
1700;DHT22;847;48.058;7.810;2022-11-21T00:48:06;8.10;99.00
1700;DHT22;847;48.058;7.810;2022-11-21T00:50:33;8.10;99.00
1700;DHT22;847;48.058;7.810;2022-11-21T00:53:01;8.20;99.00
1700;DHT22;847;48.058;7.810;2022-11-21T00:55:28;8.20;99.00
1700;DHT22;847;48.058;7.810;2022-11-21T00:57:55;8.10;99.00
1700;DHT22;847;48.058;7.810;2022-11-21T01:00:22;8.10;99.00
1700;DHT22;847;48.058;7.810;2022-11-21T01:02:50;8.20;99.00
1700;DHT22;847;48.058;7.810;2022-11-21T01:05:18;8.20;99.00
1700;DHT22;847;48.058;7.810;2022-11-21T01:07:49;8.20;99.00
1700;DHT22;847;48.058;7.810;2022-11-21T01:10:19;8.20;99.00
1700;DHT22;847;48.058;7.810;2022-11-21T01:12:46;8.20;99.00
1700;DHT22;847;48.058;7.810;2022-11-21T01:15:13;8.20;99.00
1700;DHT22;847;48.058;7.810;2022-11-21T01:17:40;8.20;99.00
1700;DHT22;847;48.058;7.810;2022-11-21T01:20:08;8.20;99.00
1700;DHT22;847;48.058;7.810;2022-11-21T01:22:35;8.20;99.00
1700;DHT22;847;48.058;7.810;2022-11-21T01:25:02;8.20;99.00
1700;DHT22;847;48.058;7.810;2022-11-21T01:27:31;8.20;99.00
1700;DHT22;847;48.058;7.810;2022-11-21T01:29:58;8.20;99.00
1700;DHT22;847;48.058;7.810;2022-11-21T01:32:25;8.20;99.00
1700;DHT22;847;48.058;7.810;2022-11-21T01:34:52;8.20;99.00
1700;DHT22;847;48.058;7.810;2022-11-21T01:37:21;8.20;99.00
1700;DHT22;847;48.058;7.810;2022-11-21T01:39:48;8.20;99.00
1700;DHT22;847;48.058;7.810;2022-11-21T01:42:15;8.20;99.00
1700;DHT22;847;48.058;7.810;2022-11-21T01:44:48;8.20;99.00
1700;DHT22;847;48.058;7.810;2022-11-21T01:47:16;8.20;99.00
1700;DHT22;847;48.058;7.810;2022-11-21T01:49:43;8.10;99.00
1700;DHT22;847;48.058;7.810;2022-11-21T01:52:13;8.10;99.00
1700;DHT22;847;48.058;7.810;2022-11-21T01:54:44;8.10;99.00
1700;DHT22;847;48.058;7.810;2022-11-21T01:57:16;8.10;99.00
1700;DHT22;847;48.058;7.810;2022-11-21T01:59:48;8.10;99.00
1700;DHT22;847;48.058;7.810;2022-11-21T02:02:19;8.10;99.00
1700;DHT22;847;48.058;7.810;2022-11-21T02:04:47;8.10;99.00
1700;DHT22;847;48.058;7.810;2022-11-21T02:07:15;8.10;99.00
1700;DHT22;847;48.058;7.810;2022-11-21T02:09:47;8.10;99.00
1700;DHT22;847;48.058;7.810;2022-11-21T02:12:21;8.10;99.00
1700;DHT22;847;48.058;7.810;2022-11-21T02:14:52;8.10;99.00
1700;DHT22;847;48.058;7.810;2022-11-21T02:17:21;8.10;99.00
1700;DHT22;847;48.058;7.810;2022-11-21T02:19:53;8.10;99.00
1700;DHT22;847;48.058;7.810;2022-11-21T02:22:26;8.10;99.00
1700;DHT22;847;48.058;7.810;2022-11-21T02:25:01;8.10;99.00
1700;DHT22;847;48.058;7.810;2022-11-21T02:27:29;8.10;99.00
1700;DHT22;847;48.058;7.810;2022-11-21T02:29:57;8.10;99.00
1700;DHT22;847;48.058;7.810;2022-11-21T02:32:35;8.10;99.00
1700;DHT22;847;48.058;7.810;2022-11-21T02:35:03;8.20;99.00
1700;DHT22;847;48.058;7.810;2022-11-21T02:37:32;8.20;99.00
1700;DHT22;847;48.058;7.810;2022-11-21T02:40:09;8.20;99.00
1700;DHT22;847;48.058;7.810;2022-11-21T02:42:42;8.20;99.00
1700;DHT22;847;48.058;7.810;2022-11-21T02:45:17;8.20;99.00
1700;DHT22;847;48.058;7.810;2022-11-21T02:47:48;8.10;99.00
1700;DHT22;847;48.058;7.810;2022-11-21T02:50:21;8.10;99.00
1700;DHT22;847;48.058;7.810;2022-11-21T02:52:52;8.20;99.00
1700;DHT22;847;48.058;7.810;2022-11-21T02:55:21;8.10;99.00
1700;DHT22;847;48.058;7.810;2022-11-21T02:57:48;8.10;99.00
1700;DHT22;847;48.058;7.810;2022-11-21T03:00:15;8.20;99.00
1700;DHT22;847;48.058;7.810;2022-11-21T03:02:42;8.10;99.00
1700;DHT22;847;48.058;7.810;2022-11-21T03:05:11;8.10;99.00
1700;DHT22;847;48.058;7.810;2022-11-21T03:07:38;8.10;99.00
1700;DHT22;847;48.058;7.810;2022-11-21T03:10:05;8.10;99.00
1700;DHT22;847;48.058;7.810;2022-11-21T03:12:35;8.10;99.00
1700;DHT22;847;48.058;7.810;2022-11-21T03:15:03;8.20;99.00
1700;DHT22;847;48.058;7.810;2022-11-21T03:17:30;8.20;99.00
1700;DHT22;847;48.058;7.810;2022-11-21T03:19:57;8.10;99.00
1700;DHT22;847;48.058;7.810;2022-11-21T03:22:24;8.10;99.00
1700;DHT22;847;48.058;7.810;2022-11-21T03:24:52;8.10;99.00
1700;DHT22;847;48.058;7.810;2022-11-21T03:27:20;8.20;99.00
1700;DHT22;847;48.058;7.810;2022-11-21T03:29:49;8.20;99.00
1700;DHT22;847;48.058;7.810;2022-11-21T03:32:15;8.20;99.00
1700;DHT22;847;48.058;7.810;2022-11-21T03:34:43;8.10;99.00
1700;DHT22;847;48.058;7.810;2022-11-21T03:37:10;8.10;99.00
1700;DHT22;847;48.058;7.810;2022-11-21T03:39:38;8.10;99.00
1700;DHT22;847;48.058;7.810;2022-11-21T03:42:05;8.10;99.00
1700;DHT22;847;48.058;7.810;2022-11-21T03:44:32;8.10;99.00
1700;DHT22;847;48.058;7.810;2022-11-21T03:47:00;8.10;99.00
1700;DHT22;847;48.058;7.810;2022-11-21T03:49:28;8.10;99.00
1700;DHT22;847;48.058;7.810;2022-11-21T03:51:55;8.10;99.00
1700;DHT22;847;48.058;7.810;2022-11-21T03:54:23;8.10;99.00
1700;DHT22;847;48.058;7.810;2022-11-21T03:56:52;8.10;99.00
1700;DHT22;847;48.058;7.810;2022-11-21T03:59:20;8.10;99.00
1700;DHT22;847;48.058;7.810;2022-11-21T04:01:47;8.10;99.00
1700;DHT22;847;48.058;7.810;2022-11-21T04:04:17;8.20;99.00
1700;DHT22;847;48.058;7.810;2022-11-21T04:06:44;8.20;99.00
1700;DHT22;847;48.058;7.810;2022-11-21T04:09:12;8.10;99.00
1700;DHT22;847;48.058;7.810;2022-11-21T04:11:40;8.10;99.00
1700;DHT22;847;48.058;7.810;2022-11-21T04:14:07;8.10;99.00
1700;DHT22;847;48.058;7.810;2022-11-21T04:16:34;8.10;99.00
1700;DHT22;847;48.058;7.810;2022-11-21T04:19:01;8.10;99.00
1700;DHT22;847;48.058;7.810;2022-11-21T04:21:29;8.00;99.00
1700;DHT22;847;48.058;7.810;2022-11-21T04:23:57;8.10;99.00
1700;DHT22;847;48.058;7.810;2022-11-21T04:26:25;8.10;99.00
1700;DHT22;847;48.058;7.810;2022-11-21T04:28:52;8.00;99.00
1700;DHT22;847;48.058;7.810;2022-11-21T04:31:20;8.00;99.00
1700;DHT22;847;48.058;7.810;2022-11-21T04:33:50;8.10;99.00
1700;DHT22;847;48.058;7.810;2022-11-21T04:36:17;8.00;99.00
1700;DHT22;847;48.058;7.810;2022-11-21T04:38:47;8.00;99.00
1700;DHT22;847;48.058;7.810;2022-11-21T04:41:14;8.00;99.00
1700;DHT22;847;48.058;7.810;2022-11-21T04:43:40;8.00;99.00
1700;DHT22;847;48.058;7.810;2022-11-21T04:46:07;8.00;99.00
1700;DHT22;847;48.058;7.810;2022-11-21T04:48:34;8.00;99.00
1700;DHT22;847;48.058;7.810;2022-11-21T04:51:01;8.00;99.00
1700;DHT22;847;48.058;7.810;2022-11-21T04:53:28;7.90;99.00
1700;DHT22;847;48.058;7.810;2022-11-21T04:55:57;8.00;99.00
1700;DHT22;847;48.058;7.810;2022-11-21T04:58:25;7.90;99.00
1700;DHT22;847;48.058;7.810;2022-11-21T05:00:52;7.90;99.00
1700;DHT22;847;48.058;7.810;2022-11-21T05:03:19;7.90;99.00
1700;DHT22;847;48.058;7.810;2022-11-21T05:05:46;7.90;99.00
1700;DHT22;847;48.058;7.810;2022-11-21T05:08:13;7.90;99.00
1700;DHT22;847;48.058;7.810;2022-11-21T05:10:42;7.90;99.00
1700;DHT22;847;48.058;7.810;2022-11-21T05:13:27;7.90;99.00
1700;DHT22;847;48.058;7.810;2022-11-21T05:15:57;7.90;99.00
1700;DHT22;847;48.058;7.810;2022-11-21T05:18:24;7.90;99.00
1700;DHT22;847;48.058;7.810;2022-11-21T05:20:52;7.90;99.00
1700;DHT22;847;48.058;7.810;2022-11-21T05:23:18;7.90;99.00
1700;DHT22;847;48.058;7.810;2022-11-21T05:25:45;7.90;99.00
1700;DHT22;847;48.058;7.810;2022-11-21T05:28:12;7.80;99.00
1700;DHT22;847;48.058;7.810;2022-11-21T05:30:42;7.80;99.00
1700;DHT22;847;48.058;7.810;2022-11-21T05:33:09;7.80;99.00
1700;DHT22;847;48.058;7.810;2022-11-21T05:35:36;7.90;99.00
1700;DHT22;847;48.058;7.810;2022-11-21T05:38:03;7.90;99.00
1700;DHT22;847;48.058;7.810;2022-11-21T05:40:30;7.90;99.00
1700;DHT22;847;48.058;7.810;2022-11-21T05:42:57;7.80;99.00
1700;DHT22;847;48.058;7.810;2022-11-21T05:45:42;7.80;99.00
1700;DHT22;847;48.058;7.810;2022-11-21T05:48:09;7.80;99.00
1700;DHT22;847;48.058;7.810;2022-11-21T05:50:36;7.80;99.00
1700;DHT22;847;48.058;7.810;2022-11-21T05:53:03;7.90;99.00
1700;DHT22;847;48.058;7.810;2022-11-21T05:55:30;7.90;99.00
1700;DHT22;847;48.058;7.810;2022-11-21T05:57:58;7.90;99.00
1700;DHT22;847;48.058;7.810;2022-11-21T06:00:25;7.90;99.00
1700;DHT22;847;48.058;7.810;2022-11-21T06:02:53;7.90;99.00
1700;DHT22;847;48.058;7.810;2022-11-21T06:05:37;7.90;99.00
1700;DHT22;847;48.058;7.810;2022-11-21T06:08:04;7.90;99.00
1700;DHT22;847;48.058;7.810;2022-11-21T06:10:31;7.90;99.00
1700;DHT22;847;48.058;7.810;2022-11-21T06:12:59;7.90;99.00
1700;DHT22;847;48.058;7.810;2022-11-21T06:15:26;7.90;99.00
1700;DHT22;847;48.058;7.810;2022-11-21T06:17:54;7.90;99.00
1700;DHT22;847;48.058;7.810;2022-11-21T06:20:21;7.90;99.00
1700;DHT22;847;48.058;7.810;2022-11-21T06:22:47;7.90;99.00
1700;DHT22;847;48.058;7.810;2022-11-21T06:25:14;7.90;99.00
1700;DHT22;847;48.058;7.810;2022-11-21T06:27:41;7.90;99.00
1700;DHT22;847;48.058;7.810;2022-11-21T06:30:09;7.90;99.00
1700;DHT22;847;48.058;7.810;2022-11-21T06:32:36;7.90;99.00
1700;DHT22;847;48.058;7.810;2022-11-21T06:35:05;7.90;99.00
1700;DHT22;847;48.058;7.810;2022-11-21T06:37:31;7.90;99.00
1700;DHT22;847;48.058;7.810;2022-11-21T06:39:58;7.90;99.00
1700;DHT22;847;48.058;7.810;2022-11-21T06:42:25;7.90;99.00
1700;DHT22;847;48.058;7.810;2022-11-21T06:44:52;7.90;99.00
1700;DHT22;847;48.058;7.810;2022-11-21T06:47:19;7.90;99.00
1700;DHT22;847;48.058;7.810;2022-11-21T06:49:45;7.90;99.00
1700;DHT22;847;48.058;7.810;2022-11-21T06:52:14;8.00;99.00
1700;DHT22;847;48.058;7.810;2022-11-21T06:54:40;7.90;99.00
1700;DHT22;847;48.058;7.810;2022-11-21T06:57:07;8.00;99.00
1700;DHT22;847;48.058;7.810;2022-11-21T06:59:34;8.00;99.00
1700;DHT22;847;48.058;7.810;2022-11-21T07:02:01;8.00;99.00
1700;DHT22;847;48.058;7.810;2022-11-21T07:04:28;8.00;99.00
1700;DHT22;847;48.058;7.810;2022-11-21T07:06:54;8.00;99.00
1700;DHT22;847;48.058;7.810;2022-11-21T07:09:22;8.00;99.00
1700;DHT22;847;48.058;7.810;2022-11-21T07:11:49;8.00;99.00
1700;DHT22;847;48.058;7.810;2022-11-21T07:14:16;8.00;99.00
1700;DHT22;847;48.058;7.810;2022-11-21T07:16:42;8.00;99.00
1700;DHT22;847;48.058;7.810;2022-11-21T07:19:10;8.00;99.00
1700;DHT22;847;48.058;7.810;2022-11-21T07:21:36;8.00;99.00
1700;DHT22;847;48.058;7.810;2022-11-21T07:24:04;7.90;99.00
1700;DHT22;847;48.058;7.810;2022-11-21T07:26:32;8.00;99.00
1700;DHT22;847;48.058;7.810;2022-11-21T07:28:59;8.00;99.00
1700;DHT22;847;48.058;7.810;2022-11-21T07:31:26;7.90;99.00
1700;DHT22;847;48.058;7.810;2022-11-21T07:33:53;8.00;99.00
1700;DHT22;847;48.058;7.810;2022-11-21T07:36:19;7.90;99.00
1700;DHT22;847;48.058;7.810;2022-11-21T07:38:47;8.00;99.00
1700;DHT22;847;48.058;7.810;2022-11-21T07:41:14;8.00;99.00
1700;DHT22;847;48.058;7.810;2022-11-21T07:43:42;8.00;99.00
1700;DHT22;847;48.058;7.810;2022-11-21T07:46:09;8.00;99.00
1700;DHT22;847;48.058;7.810;2022-11-21T07:48:36;8.00;99.00
1700;DHT22;847;48.058;7.810;2022-11-21T07:51:04;8.00;99.00
1700;DHT22;847;48.058;7.810;2022-11-21T07:53:30;8.00;99.00
1700;DHT22;847;48.058;7.810;2022-11-21T07:55:57;8.10;99.00
1700;DHT22;847;48.058;7.810;2022-11-21T07:58:24;8.10;99.00
1700;DHT22;847;48.058;7.810;2022-11-21T08:00:52;8.10;99.00
1700;DHT22;847;48.058;7.810;2022-11-21T08:03:19;8.10;99.00
1700;DHT22;847;48.058;7.810;2022-11-21T08:05:47;8.10;99.00
1700;DHT22;847;48.058;7.810;2022-11-21T08:08:14;8.10;99.00
1700;DHT22;847;48.058;7.810;2022-11-21T08:10:43;8.10;99.00
1700;DHT22;847;48.058;7.810;2022-11-21T08:13:16;8.10;99.00
1700;DHT22;847;48.058;7.810;2022-11-21T08:15:43;8.20;99.00
1700;DHT22;847;48.058;7.810;2022-11-21T08:18:12;8.20;99.00
1700;DHT22;847;48.058;7.810;2022-11-21T08:20:46;8.20;99.00
1700;DHT22;847;48.058;7.810;2022-11-21T08:23:13;8.20;99.00
1700;DHT22;847;48.058;7.810;2022-11-21T08:25:41;8.20;99.00
1700;DHT22;847;48.058;7.810;2022-11-21T08:28:09;8.30;99.00
1700;DHT22;847;48.058;7.810;2022-11-21T08:30:39;8.30;99.00
1700;DHT22;847;48.058;7.810;2022-11-21T08:33:17;8.40;99.00
1700;DHT22;847;48.058;7.810;2022-11-21T08:35:46;8.50;99.00
1700;DHT22;847;48.058;7.810;2022-11-21T08:38:13;8.60;99.00
1700;DHT22;847;48.058;7.810;2022-11-21T08:40:40;8.60;99.00
1700;DHT22;847;48.058;7.810;2022-11-21T08:43:08;8.70;99.00
1700;DHT22;847;48.058;7.810;2022-11-21T08:45:36;8.70;99.00
1700;DHT22;847;48.058;7.810;2022-11-21T08:48:07;8.80;99.00
1700;DHT22;847;48.058;7.810;2022-11-21T08:50:38;8.80;99.00
1700;DHT22;847;48.058;7.810;2022-11-21T08:53:05;8.80;99.00
1700;DHT22;847;48.058;7.810;2022-11-21T08:55:32;8.90;99.00
1700;DHT22;847;48.058;7.810;2022-11-21T08:58:02;8.90;99.00
1700;DHT22;847;48.058;7.810;2022-11-21T09:00:31;9.00;99.00
1700;DHT22;847;48.058;7.810;2022-11-21T09:03:03;9.00;99.00
1700;DHT22;847;48.058;7.810;2022-11-21T09:05:30;9.10;99.00
1700;DHT22;847;48.058;7.810;2022-11-21T09:07:58;9.10;99.00
1700;DHT22;847;48.058;7.810;2022-11-21T09:10:26;9.10;99.00
1700;DHT22;847;48.058;7.810;2022-11-21T09:12:53;9.10;99.00
1700;DHT22;847;48.058;7.810;2022-11-21T09:15:22;9.20;99.00
1700;DHT22;847;48.058;7.810;2022-11-21T09:18:09;9.20;99.00
1700;DHT22;847;48.058;7.810;2022-11-21T09:20:40;9.30;99.00
1700;DHT22;847;48.058;7.810;2022-11-21T09:23:25;9.40;99.00
1700;DHT22;847;48.058;7.810;2022-11-21T09:25:52;9.40;99.00
1700;DHT22;847;48.058;7.810;2022-11-21T09:28:18;9.50;99.00
1700;DHT22;847;48.058;7.810;2022-11-21T09:30:45;9.60;99.00
1700;DHT22;847;48.058;7.810;2022-11-21T09:33:14;9.60;99.00
1700;DHT22;847;48.058;7.810;2022-11-21T09:35:42;9.70;99.00
1700;DHT22;847;48.058;7.810;2022-11-21T09:38:11;9.70;99.00
1700;DHT22;847;48.058;7.810;2022-11-21T09:40:42;9.80;99.00
1700;DHT22;847;48.058;7.810;2022-11-21T09:43:30;9.80;99.00
1700;DHT22;847;48.058;7.810;2022-11-21T09:46:08;9.80;99.00
1700;DHT22;847;48.058;7.810;2022-11-21T09:48:45;9.80;99.00
1700;DHT22;847;48.058;7.810;2022-11-21T09:51:15;9.80;99.00
1700;DHT22;847;48.058;7.810;2022-11-21T09:53:51;9.80;98.40
1700;DHT22;847;48.058;7.810;2022-11-21T09:56:22;9.80;99.00
1700;DHT22;847;48.058;7.810;2022-11-21T09:59:00;9.90;99.00
1700;DHT22;847;48.058;7.810;2022-11-21T10:01:31;9.90;99.00
1700;DHT22;847;48.058;7.810;2022-11-21T10:04:01;9.90;99.00
1700;DHT22;847;48.058;7.810;2022-11-21T10:06:30;9.90;99.00
1700;DHT22;847;48.058;7.810;2022-11-21T10:09:04;9.80;99.00
1700;DHT22;847;48.058;7.810;2022-11-21T10:11:43;9.80;99.00
1700;DHT22;847;48.058;7.810;2022-11-21T10:14:45;9.70;99.00
1700;DHT22;847;48.058;7.810;2022-11-21T10:17:26;9.70;99.00
1700;DHT22;847;48.058;7.810;2022-11-21T10:20:12;9.70;99.00
1700;DHT22;847;48.058;7.810;2022-11-21T10:22:58;9.80;99.00
1700;DHT22;847;48.058;7.810;2022-11-21T10:25:31;9.90;99.00
1700;DHT22;847;48.058;7.810;2022-11-21T10:28:03;10.40;99.00
1700;DHT22;847;48.058;7.810;2022-11-21T10:30:31;10.80;97.30
1700;DHT22;847;48.058;7.810;2022-11-21T10:33:02;11.10;95.70
1700;DHT22;847;48.058;7.810;2022-11-21T10:35:35;11.30;94.00
1700;DHT22;847;48.058;7.810;2022-11-21T10:38:17;11.50;93.40
1700;DHT22;847;48.058;7.810;2022-11-21T10:40:49;11.80;93.00
1700;DHT22;847;48.058;7.810;2022-11-21T10:43:25;12.00;91.80
1700;DHT22;847;48.058;7.810;2022-11-21T10:46:14;12.30;91.00
1700;DHT22;847;48.058;7.810;2022-11-21T10:48:41;12.40;89.80
1700;DHT22;847;48.058;7.810;2022-11-21T10:51:32;12.50;89.60
1700;DHT22;847;48.058;7.810;2022-11-21T10:54:05;12.90;89.00
1700;DHT22;847;48.058;7.810;2022-11-21T10:56:51;12.90;88.20
1700;DHT22;847;48.058;7.810;2022-11-21T10:59:23;12.70;87.40
1700;DHT22;847;48.058;7.810;2022-11-21T11:01:55;12.60;88.60
1700;DHT22;847;48.058;7.810;2022-11-21T11:04:22;12.60;88.10
1700;DHT22;847;48.058;7.810;2022-11-21T11:06:49;12.70;87.70
1700;DHT22;847;48.058;7.810;2022-11-21T11:09:25;12.70;87.80
1700;DHT22;847;48.058;7.810;2022-11-21T11:11:53;12.90;87.40
1700;DHT22;847;48.058;7.810;2022-11-21T11:14:30;12.90;86.90
1700;DHT22;847;48.058;7.810;2022-11-21T11:17:00;12.60;86.60
1700;DHT22;847;48.058;7.810;2022-11-21T11:19:28;12.60;87.10
1700;DHT22;847;48.058;7.810;2022-11-21T11:21:55;12.70;86.50
1700;DHT22;847;48.058;7.810;2022-11-21T11:24:24;12.50;86.20
1700;DHT22;847;48.058;7.810;2022-11-21T11:26:57;12.50;86.60
1700;DHT22;847;48.058;7.810;2022-11-21T11:29:25;12.60;86.90
1700;DHT22;847;48.058;7.810;2022-11-21T11:31:55;12.70;86.40
1700;DHT22;847;48.058;7.810;2022-11-21T11:34:25;12.70;86.60
1700;DHT22;847;48.058;7.810;2022-11-21T11:37:03;12.90;86.10
1700;DHT22;847;48.058;7.810;2022-11-21T11:39:38;13.00;85.10
1700;DHT22;847;48.058;7.810;2022-11-21T11:42:24;13.20;85.70
1700;DHT22;847;48.058;7.810;2022-11-21T11:45:39;13.00;84.90
1700;DHT22;847;48.058;7.810;2022-11-21T11:48:26;12.90;85.50
1700;DHT22;847;48.058;7.810;2022-11-21T11:50:58;12.90;83.90
1700;DHT22;847;48.058;7.810;2022-11-21T11:53:30;13.10;84.90
1700;DHT22;847;48.058;7.810;2022-11-21T11:56:01;13.20;84.30
1700;DHT22;847;48.058;7.810;2022-11-21T11:58:35;13.00;83.70
1700;DHT22;847;48.058;7.810;2022-11-21T12:01:09;13.00;84.60
1700;DHT22;847;48.058;7.810;2022-11-21T12:03:42;13.20;84.20
1700;DHT22;847;48.058;7.810;2022-11-21T12:06:14;13.40;84.60
1700;DHT22;847;48.058;7.810;2022-11-21T12:08:46;13.40;84.70
1700;DHT22;847;48.058;7.810;2022-11-21T12:11:21;13.50;83.60
1700;DHT22;847;48.058;7.810;2022-11-21T12:14:14;13.40;84.00
1700;DHT22;847;48.058;7.810;2022-11-21T12:17:05;13.40;82.10
1700;DHT22;847;48.058;7.810;2022-11-21T12:19:36;13.20;83.80
1700;DHT22;847;48.058;7.810;2022-11-21T12:22:03;13.30;82.80
1700;DHT22;847;48.058;7.810;2022-11-21T12:24:32;13.30;84.20
1700;DHT22;847;48.058;7.810;2022-11-21T12:27:05;13.20;83.20
1700;DHT22;847;48.058;7.810;2022-11-21T12:29:44;13.40;82.10
1700;DHT22;847;48.058;7.810;2022-11-21T12:32:27;13.50;83.70
1700;DHT22;847;48.058;7.810;2022-11-21T12:35:25;13.30;83.20
1700;DHT22;847;48.058;7.810;2022-11-21T12:38:01;13.40;83.00
1700;DHT22;847;48.058;7.810;2022-11-21T12:40:42;13.40;81.90
1700;DHT22;847;48.058;7.810;2022-11-21T12:43:20;13.40;82.00
1700;DHT22;847;48.058;7.810;2022-11-21T12:45:53;13.10;81.80
1700;DHT22;847;48.058;7.810;2022-11-21T12:48:36;13.10;81.80
1700;DHT22;847;48.058;7.810;2022-11-21T12:57:45;13.10;80.90
1700;DHT22;847;48.058;7.810;2022-11-21T13:00:19;13.30;80.70
1700;DHT22;847;48.058;7.810;2022-11-21T13:03:04;12.80;79.90
1700;DHT22;847;48.058;7.810;2022-11-21T13:05:40;12.90;81.90
1700;DHT22;847;48.058;7.810;2022-11-21T13:08:13;12.70;80.20
1700;DHT22;847;48.058;7.810;2022-11-21T13:10:45;12.50;80.70
1700;DHT22;847;48.058;7.810;2022-11-21T13:13:18;12.20;81.10
1700;DHT22;847;48.058;7.810;2022-11-21T13:15:52;12.20;82.10
1700;DHT22;847;48.058;7.810;2022-11-21T13:18:24;12.30;82.70
1700;DHT22;847;48.058;7.810;2022-11-21T13:20:53;12.20;82.00
1700;DHT22;847;48.058;7.810;2022-11-21T13:23:38;12.10;82.80
1700;DHT22;847;48.058;7.810;2022-11-21T13:26:50;12.00;83.00
1700;DHT22;847;48.058;7.810;2022-11-21T13:29:17;12.10;83.30
1700;DHT22;847;48.058;7.810;2022-11-21T13:31:47;12.00;83.90
1700;DHT22;847;48.058;7.810;2022-11-21T13:34:34;12.00;83.30
1700;DHT22;847;48.058;7.810;2022-11-21T13:37:02;12.20;84.00
1700;DHT22;847;48.058;7.810;2022-11-21T13:39:34;12.20;83.30
1700;DHT22;847;48.058;7.810;2022-11-21T13:42:04;12.20;83.30
1700;DHT22;847;48.058;7.810;2022-11-21T13:44:48;12.00;83.80
1700;DHT22;847;48.058;7.810;2022-11-21T13:47:47;11.90;85.20
1700;DHT22;847;48.058;7.810;2022-11-21T13:50:22;11.80;85.60
1700;DHT22;847;48.058;7.810;2022-11-21T13:53:01;11.80;86.00
1700;DHT22;847;48.058;7.810;2022-11-21T13:55:44;11.80;86.70
1700;DHT22;847;48.058;7.810;2022-11-21T13:58:25;11.70;87.20
1700;DHT22;847;48.058;7.810;2022-11-21T14:01:06;11.60;85.90
1700;DHT22;847;48.058;7.810;2022-11-21T14:04:02;11.40;85.20
1700;DHT22;847;48.058;7.810;2022-11-21T14:06:36;11.20;84.80
1700;DHT22;847;48.058;7.810;2022-11-21T14:11:56;11.20;85.10
1700;DHT22;847;48.058;7.810;2022-11-21T14:14:33;11.10;86.40
1700;DHT22;847;48.058;7.810;2022-11-21T14:20:12;11.30;85.60
1700;DHT22;847;48.058;7.810;2022-11-21T14:22:42;11.20;85.70
1700;DHT22;847;48.058;7.810;2022-11-21T14:25:14;11.20;86.00
1700;DHT22;847;48.058;7.810;2022-11-21T14:27:46;11.40;86.60
1700;DHT22;847;48.058;7.810;2022-11-21T14:30:26;11.40;85.80
1700;DHT22;847;48.058;7.810;2022-11-21T14:32:53;11.30;86.00
1700;DHT22;847;48.058;7.810;2022-11-21T14:35:22;11.20;86.10
1700;DHT22;847;48.058;7.810;2022-11-21T14:37:50;11.10;86.60
1700;DHT22;847;48.058;7.810;2022-11-21T14:40:20;11.10;86.70
1700;DHT22;847;48.058;7.810;2022-11-21T14:45:23;11.20;85.70
1700;DHT22;847;48.058;7.810;2022-11-21T14:47:52;11.30;85.30
1700;DHT22;847;48.058;7.810;2022-11-21T14:50:23;11.30;86.10
1700;DHT22;847;48.058;7.810;2022-11-21T14:52:51;11.40;86.20
1700;DHT22;847;48.058;7.810;2022-11-21T14:55:24;11.30;87.10
1700;DHT22;847;48.058;7.810;2022-11-21T14:57:52;11.10;86.80
1700;DHT22;847;48.058;7.810;2022-11-21T15:00:23;11.00;87.20
1700;DHT22;847;48.058;7.810;2022-11-21T15:02:52;11.00;87.70
1700;DHT22;847;48.058;7.810;2022-11-21T15:05:21;11.00;87.30
1700;DHT22;847;48.058;7.810;2022-11-21T15:07:48;11.00;88.50
1700;DHT22;847;48.058;7.810;2022-11-21T15:10:17;11.00;88.10
1700;DHT22;847;48.058;7.810;2022-11-21T15:17:58;10.80;90.20
1700;DHT22;847;48.058;7.810;2022-11-21T15:20:26;10.80;90.60
1700;DHT22;847;48.058;7.810;2022-11-21T15:22:54;10.60;91.90
1700;DHT22;847;48.058;7.810;2022-11-21T15:25:24;10.70;91.30
1700;DHT22;847;48.058;7.810;2022-11-21T15:28:04;10.70;91.10
1700;DHT22;847;48.058;7.810;2022-11-21T15:30:33;10.70;91.90
1700;DHT22;847;48.058;7.810;2022-11-21T15:33:04;10.70;92.60
1700;DHT22;847;48.058;7.810;2022-11-21T15:35:46;10.70;92.50
1700;DHT22;847;48.058;7.810;2022-11-21T15:38:24;10.70;92.30
1700;DHT22;847;48.058;7.810;2022-11-21T15:40:59;10.50;92.60
1700;DHT22;847;48.058;7.810;2022-11-21T15:43:33;10.70;92.20
1700;DHT22;847;48.058;7.810;2022-11-21T15:46:00;10.40;92.80
1700;DHT22;847;48.058;7.810;2022-11-21T15:48:29;10.10;93.50
1700;DHT22;847;48.058;7.810;2022-11-21T15:50:56;10.00;94.20
1700;DHT22;847;48.058;7.810;2022-11-21T15:53:22;10.10;93.80
1700;DHT22;847;48.058;7.810;2022-11-21T15:55:49;10.20;93.30
1700;DHT22;847;48.058;7.810;2022-11-21T15:58:16;10.00;93.60
1700;DHT22;847;48.058;7.810;2022-11-21T16:00:43;10.00;94.20
1700;DHT22;847;48.058;7.810;2022-11-21T16:03:10;9.90;94.80
1700;DHT22;847;48.058;7.810;2022-11-21T16:05:38;9.90;94.70
1700;DHT22;847;48.058;7.810;2022-11-21T16:13:14;9.70;96.20
1700;DHT22;847;48.058;7.810;2022-11-21T16:15:42;9.80;95.50
1700;DHT22;847;48.058;7.810;2022-11-21T16:18:11;9.70;95.70
1700;DHT22;847;48.058;7.810;2022-11-21T16:23:22;9.60;96.30
1700;DHT22;847;48.058;7.810;2022-11-21T16:25:52;9.50;96.50
1700;DHT22;847;48.058;7.810;2022-11-21T16:30:56;9.40;96.70
1700;DHT22;847;48.058;7.810;2022-11-21T16:33:23;9.30;96.70
1700;DHT22;847;48.058;7.810;2022-11-21T16:35:49;9.30;96.90
1700;DHT22;847;48.058;7.810;2022-11-21T16:38:21;9.20;97.10
1700;DHT22;847;48.058;7.810;2022-11-21T16:40:52;9.10;97.50
1700;DHT22;847;48.058;7.810;2022-11-21T16:43:20;9.10;97.90
1700;DHT22;847;48.058;7.810;2022-11-21T16:45:47;9.20;97.60
1700;DHT22;847;48.058;7.810;2022-11-21T16:48:14;9.20;97.50
1700;DHT22;847;48.058;7.810;2022-11-21T16:50:48;9.10;97.90
1700;DHT22;847;48.058;7.810;2022-11-21T16:53:32;9.10;97.90
1700;DHT22;847;48.058;7.810;2022-11-21T16:56:32;9.10;97.90
1700;DHT22;847;48.058;7.810;2022-11-21T17:08:42;9.10;98.60
1700;DHT22;847;48.058;7.810;2022-11-21T17:11:36;9.10;98.50
1700;DHT22;847;48.058;7.810;2022-11-21T17:14:17;9.10;98.40
1700;DHT22;847;48.058;7.810;2022-11-21T17:16:44;9.10;98.10
1700;DHT22;847;48.058;7.810;2022-11-21T17:19:13;9.20;97.70
1700;DHT22;847;48.058;7.810;2022-11-21T17:21:40;9.20;97.50
1700;DHT22;847;48.058;7.810;2022-11-21T17:24:43;9.20;97.10
1700;DHT22;847;48.058;7.810;2022-11-21T17:27:10;9.20;96.80
1700;DHT22;847;48.058;7.810;2022-11-21T17:29:37;9.30;96.70
1700;DHT22;847;48.058;7.810;2022-11-21T17:32:04;9.30;97.20
1700;DHT22;847;48.058;7.810;2022-11-21T17:34:31;9.30;96.80